createdAt,value
2023-01-19T00:00:45.451Z,20.02
2023-01-19T00:03:16.144Z,15.95
2023-01-19T00:05:43.959Z,15.77
2023-01-19T00:08:17.497Z,16.73
2023-01-19T00:10:46.356Z,20.30
2023-01-19T00:13:13.563Z,19.85
2023-01-19T00:15:40.116Z,18.40
2023-01-19T00:18:07.600Z,13.63
2023-01-19T00:20:38.053Z,16.40
2023-01-19T00:23:04.843Z,19.42
2023-01-19T00:25:31.691Z,18.02
2023-01-19T00:28:00.510Z,18.08
2023-01-19T00:30:28.047Z,19.27
2023-01-19T00:32:54.552Z,16.85
2023-01-19T00:35:21.124Z,20.55
2023-01-19T00:37:47.662Z,18.30
2023-01-19T00:40:14.315Z,14.45
2023-01-19T00:42:44.189Z,17.15
2023-01-19T00:45:13.583Z,17.65
2023-01-19T00:47:40.299Z,18.63
2023-01-19T00:50:11.861Z,18.08
2023-01-19T00:52:39.867Z,16.38
2023-01-19T00:55:09.174Z,15.57
2023-01-19T00:57:35.800Z,12.75
2023-01-19T01:00:06.435Z,16.05
2023-01-19T01:02:34.164Z,20.20
2023-01-19T01:05:02.800Z,15.98
2023-01-19T01:07:30.405Z,14.95
2023-01-19T01:09:57.455Z,15.38
2023-01-19T01:12:24.612Z,17.65
2023-01-19T01:14:51.187Z,14.27
2023-01-19T01:17:25.103Z,14.75
2023-01-19T01:19:52.481Z,12.70
2023-01-19T01:22:19.611Z,16.00
2023-01-19T01:24:46.226Z,13.70
2023-01-19T01:27:13.297Z,16.30
2023-01-19T01:29:41.238Z,15.48
2023-01-19T01:32:08.479Z,13.48
2023-01-19T01:34:35.330Z,15.82
2023-01-19T01:37:02.890Z,13.02
2023-01-19T01:39:29.567Z,15.25
2023-01-19T01:41:56.091Z,17.70
2023-01-19T01:44:52.088Z,16.00
2023-01-19T01:47:39.684Z,14.10
2023-01-19T01:50:17.192Z,14.32
2023-01-19T01:53:06.503Z,15.00
2023-01-19T01:55:38.053Z,13.73
2023-01-19T01:58:08.729Z,14.45
2023-01-19T02:00:54.304Z,17.00
2023-01-19T02:03:23.428Z,14.38
2023-01-19T02:05:50.848Z,14.38
2023-01-19T02:08:46.927Z,18.30
2023-01-19T02:11:32.344Z,13.65
2023-01-19T02:13:59.009Z,12.07
2023-01-19T02:16:25.581Z,13.98
2023-01-19T02:18:52.452Z,15.27
2023-01-19T02:21:57.039Z,13.13
2023-01-19T02:24:24.401Z,15.43
2023-01-19T02:26:51.998Z,7.18
2023-01-19T02:29:20.947Z,10.00
2023-01-19T02:31:47.776Z,14.68
2023-01-19T02:34:19.944Z,10.18
2023-01-19T02:36:56.160Z,11.65
2023-01-19T02:41:59.740Z,13.77
2023-01-19T02:44:27.791Z,11.63
2023-01-19T02:46:54.833Z,12.60
2023-01-19T02:49:21.391Z,12.38
2023-01-19T02:51:48.482Z,13.35
2023-01-19T02:54:27.164Z,13.38
2023-01-19T02:56:56.657Z,12.02
2023-01-19T02:59:26.288Z,12.10
2023-01-19T03:02:17.722Z,15.70
2023-01-19T03:05:22.965Z,12.88
2023-01-19T03:08:08.011Z,16.60
2023-01-19T03:10:53.173Z,13.27
2023-01-19T03:13:47.298Z,5.82
2023-01-19T03:16:25.580Z,8.48
2023-01-19T03:19:03.009Z,5.63
2023-01-19T03:21:33.966Z,9.88
2023-01-19T03:24:04.657Z,12.13
2023-01-19T03:26:34.938Z,12.98
2023-01-19T03:29:04.039Z,13.38
2023-01-19T03:31:33.062Z,9.55
2023-01-19T03:34:07.860Z,15.48
2023-01-19T03:36:40.482Z,9.45
2023-01-19T03:39:09.594Z,10.88
2023-01-19T03:41:38.358Z,11.32
2023-01-19T03:44:06.239Z,12.32
2023-01-19T03:46:33.911Z,12.73
2023-01-19T03:49:00.576Z,11.68
2023-01-19T03:51:27.401Z,10.27
2023-01-19T03:53:53.927Z,12.40
2023-01-19T03:56:25.257Z,6.18
2023-01-19T03:58:52.440Z,9.70
2023-01-19T04:01:23.406Z,7.88
2023-01-19T04:03:50.811Z,6.70
2023-01-19T04:06:18.025Z,4.45
2023-01-19T04:08:44.606Z,6.63
2023-01-19T04:11:11.594Z,7.60
2023-01-19T04:13:38.133Z,5.55
2023-01-19T04:16:05.568Z,9.55
2023-01-19T04:18:34.932Z,7.75
2023-01-19T04:21:06.650Z,7.03
2023-01-19T04:23:33.801Z,8.90
2023-01-19T04:26:03.174Z,7.75
2023-01-19T04:28:30.648Z,8.43
2023-01-19T04:30:57.231Z,7.85
2023-01-19T04:33:24.512Z,8.95
2023-01-19T04:35:54.419Z,10.05
2023-01-19T04:38:21.947Z,8.85
2023-01-19T04:40:53.429Z,8.38
2023-01-19T04:43:21.206Z,6.05
2023-01-19T04:45:49.078Z,9.48
2023-01-19T04:48:18.370Z,9.35
2023-01-19T04:50:44.931Z,13.52
2023-01-19T04:53:13.637Z,12.60
2023-01-19T04:55:40.503Z,7.55
2023-01-19T04:58:07.091Z,10.82
2023-01-19T05:00:33.831Z,9.02
2023-01-19T05:03:01.638Z,10.95
2023-01-19T05:05:28.661Z,6.18
2023-01-19T05:07:55.353Z,5.30
2023-01-19T05:10:22.149Z,5.82
2023-01-19T05:12:48.834Z,3.30
2023-01-19T05:15:15.401Z,8.45
2023-01-19T05:17:42.087Z,4.88
2023-01-19T05:20:11.105Z,4.95
2023-01-19T05:22:39.190Z,4.07
2023-01-19T05:25:08.781Z,3.67
2023-01-19T05:27:36.445Z,4.63
2023-01-19T05:30:05.022Z,3.28
2023-01-19T05:32:31.612Z,4.93
2023-01-19T05:34:58.177Z,6.00
2023-01-19T05:37:24.769Z,5.03
2023-01-19T05:39:51.466Z,2.15
2023-01-19T05:42:18.007Z,2.38
2023-01-19T05:44:44.608Z,6.35
2023-01-19T05:47:11.788Z,5.82
2023-01-19T05:49:38.428Z,5.43
2023-01-19T05:52:04.957Z,6.15
2023-01-19T05:54:31.545Z,4.05
2023-01-19T05:56:58.245Z,5.03
2023-01-19T05:59:24.806Z,4.03
2023-01-19T06:01:52.160Z,3.75
2023-01-19T06:04:19.965Z,2.75
2023-01-19T06:06:50.329Z,3.83
2023-01-19T06:09:17.573Z,3.08
2023-01-19T06:11:45.245Z,5.45
2023-01-19T06:14:12.012Z,10.65
2023-01-19T06:16:38.953Z,14.02
2023-01-19T06:19:05.937Z,11.55
2023-01-19T06:21:33.221Z,15.85
2023-01-19T06:23:59.897Z,15.98
2023-01-19T06:26:26.436Z,13.90
2023-01-19T06:28:52.988Z,14.63
2023-01-19T06:31:19.576Z,17.45
2023-01-19T06:33:46.164Z,11.82
2023-01-19T06:36:12.845Z,9.77
2023-01-19T06:38:39.391Z,16.50
2023-01-19T06:41:05.979Z,12.27
2023-01-19T06:43:32.755Z,13.40
2023-01-19T06:46:00.679Z,14.40
2023-01-19T06:48:27.653Z,10.52
2023-01-19T06:50:54.216Z,12.77
2023-01-19T06:53:22.273Z,9.38
2023-01-19T06:55:48.974Z,10.30
2023-01-19T06:58:15.771Z,9.95
2023-01-19T07:00:43.081Z,9.43
2023-01-19T07:03:16.106Z,11.75
2023-01-19T07:05:42.731Z,7.70
2023-01-19T07:08:09.315Z,10.27
2023-01-19T07:11:21.524Z,17.27
2023-01-19T07:13:22.830Z,4.63
2023-01-19T07:15:49.434Z,6.18
2023-01-19T07:18:15.956Z,12.68
2023-01-19T07:20:44.344Z,13.05
2023-01-19T07:23:10.865Z,3.15
2023-01-19T07:25:38.284Z,8.10
2023-01-19T07:28:04.883Z,9.73
2023-01-19T07:30:31.437Z,8.50
2023-01-19T07:32:59.076Z,10.40
2023-01-19T07:35:25.914Z,12.30
2023-01-19T07:37:52.580Z,10.73
2023-01-19T07:40:19.304Z,12.93
2023-01-19T07:42:48.771Z,12.30
2023-01-19T07:45:23.234Z,7.90
2023-01-19T07:47:50.051Z,12.30
2023-01-19T07:50:21.230Z,8.35
2023-01-19T07:52:50.640Z,5.43
2023-01-19T07:55:17.575Z,12.18
2023-01-19T07:57:44.262Z,9.82
2023-01-19T08:00:11.599Z,4.43
2023-01-19T08:02:38.350Z,11.43
2023-01-19T08:05:05.210Z,11.40
2023-01-19T08:07:33.480Z,11.25
2023-01-19T08:10:00.004Z,12.23
2023-01-19T08:12:26.587Z,13.32
2023-01-19T08:14:53.127Z,13.52
2023-01-19T08:17:19.709Z,7.63
2023-01-19T08:19:46.242Z,11.88
2023-01-19T08:22:12.742Z,9.43
2023-01-19T08:24:39.254Z,8.00
2023-01-19T08:27:06.120Z,10.13
2023-01-19T08:29:33.669Z,10.18
2023-01-19T08:32:02.232Z,10.75
2023-01-19T08:34:32.686Z,7.35
2023-01-19T08:36:59.496Z,10.25
2023-01-19T08:39:27.363Z,6.72
2023-01-19T08:41:54.248Z,8.48
2023-01-19T08:44:20.871Z,9.38
2023-01-19T08:46:47.883Z,4.63
2023-01-19T08:49:15.807Z,10.07
2023-01-19T08:51:42.365Z,8.07
2023-01-19T08:54:09.867Z,11.07
2023-01-19T08:56:36.816Z,10.23
2023-01-19T08:59:09.906Z,10.43
2023-01-19T09:01:37.651Z,10.93
2023-01-19T09:04:04.480Z,10.02
2023-01-19T09:06:31.031Z,9.90
2023-01-19T09:08:57.764Z,11.82
2023-01-19T09:11:24.489Z,9.07
2023-01-19T09:13:51.032Z,11.15
2023-01-19T09:16:17.694Z,11.07
2023-01-19T09:18:46.045Z,12.98
2023-01-19T09:21:13.879Z,10.85
2023-01-19T09:23:40.547Z,10.23
2023-01-19T09:26:07.406Z,12.52
2023-01-19T09:28:34.078Z,12.50
2023-01-19T09:31:05.519Z,13.07
2023-01-19T09:33:32.132Z,4.65
2023-01-19T09:35:58.978Z,12.63
2023-01-19T09:38:27.008Z,9.23
2023-01-19T09:40:56.676Z,12.75
2023-01-19T09:43:39.421Z,11.18
2023-01-19T09:46:21.119Z,8.68
2023-01-19T09:48:51.809Z,3.50
2023-01-19T09:51:28.168Z,6.32
2023-01-19T09:54:17.860Z,6.47
2023-01-19T09:56:46.208Z,7.80
2023-01-19T09:59:21.943Z,7.68
2023-01-19T10:02:18.846Z,9.90
2023-01-19T10:05:02.565Z,6.05
2023-01-19T10:07:54.542Z,7.95
2023-01-19T10:10:30.854Z,8.85
2023-01-19T10:13:09.748Z,20.33
2023-01-19T10:15:36.390Z,11.38
2023-01-19T10:18:20.030Z,17.15
2023-01-19T10:20:56.452Z,10.02
2023-01-19T10:23:38.540Z,10.02
2023-01-19T10:26:26.357Z,7.78
2023-01-19T10:28:57.564Z,5.35
2023-01-19T10:31:25.106Z,7.05
2023-01-19T10:33:52.775Z,9.43
2023-01-19T10:36:29.774Z,6.47
2023-01-19T10:38:56.328Z,5.53
2023-01-19T10:41:31.707Z,5.18
2023-01-19T10:44:04.336Z,7.28
2023-01-19T10:46:42.145Z,9.10
2023-01-19T10:49:28.992Z,5.65
2023-01-19T10:51:58.166Z,7.18
2023-01-19T10:54:27.486Z,7.00
2023-01-19T10:57:21.581Z,6.18
2023-01-19T10:59:50.869Z,5.68
2023-01-19T11:02:29.456Z,4.22
2023-01-19T11:05:23.126Z,6.35
2023-01-19T11:07:49.682Z,3.50
2023-01-19T11:10:16.324Z,6.40
2023-01-19T11:12:45.864Z,6.00
2023-01-19T11:15:22.907Z,4.00
2023-01-19T11:17:50.486Z,6.05
2023-01-19T11:20:30.493Z,3.55
2023-01-19T11:23:18.457Z,8.10
2023-01-19T11:25:50.249Z,5.10
2023-01-19T11:28:40.003Z,5.72
2023-01-19T11:31:15.873Z,6.18
2023-01-19T11:38:53.796Z,8.02
2023-01-19T11:41:33.125Z,8.13
2023-01-19T11:44:21.588Z,5.78
2023-01-19T11:49:40.458Z,5.93
2023-01-19T11:52:16.275Z,5.60
2023-01-19T11:54:51.852Z,6.00
2023-01-19T11:57:18.449Z,7.55
2023-01-19T11:59:45.071Z,7.75
2023-01-19T12:02:53.019Z,6.07
2023-01-19T12:05:21.561Z,6.00
2023-01-19T12:07:50.959Z,6.20
2023-01-19T12:10:31.550Z,7.95
2023-01-19T12:12:59.212Z,8.68
2023-01-19T12:16:08.712Z,7.47
2023-01-19T12:18:50.126Z,5.53
2023-01-19T12:21:19.270Z,5.47
2023-01-19T12:24:07.641Z,5.15
2023-01-19T12:29:17.779Z,6.32
2023-01-19T12:31:44.542Z,7.20
2023-01-19T12:34:27.241Z,12.00
2023-01-19T12:36:58.060Z,7.45
2023-01-19T12:39:25.946Z,5.15
2023-01-19T12:42:18.125Z,5.57
2023-01-19T12:44:47.188Z,5.15
2023-01-19T12:47:13.655Z,4.95
2023-01-19T12:49:46.431Z,3.38
2023-01-19T12:52:26.841Z,4.65
2023-01-19T12:55:05.455Z,5.75
2023-01-19T12:57:48.108Z,4.35
2023-01-19T13:00:23.573Z,5.40
2023-01-19T13:02:55.717Z,4.00
2023-01-19T13:05:24.493Z,3.75
2023-01-19T13:08:03.354Z,3.55
2023-01-19T13:11:09.612Z,4.97
2023-01-19T13:13:46.279Z,7.10
2023-01-19T13:16:20.639Z,7.70
2023-01-19T13:18:58.593Z,5.18
2023-01-19T13:21:33.301Z,5.97
2023-01-19T13:24:05.820Z,2.42
2023-01-19T13:26:35.247Z,5.35
2023-01-19T13:29:16.470Z,5.35
2023-01-19T13:31:49.052Z,4.85
2023-01-19T13:34:19.832Z,4.88
2023-01-19T13:36:51.295Z,3.47
2023-01-19T13:39:28.428Z,5.25
2023-01-19T13:41:58.229Z,6.43
2023-01-19T13:46:59.357Z,5.32
2023-01-19T13:49:44.823Z,3.83
2023-01-19T13:52:16.994Z,6.00
2023-01-19T13:54:53.337Z,3.53
2023-01-19T13:57:31.623Z,3.38
2023-01-19T14:00:21.623Z,6.43
2023-01-19T14:02:59.272Z,2.28
2023-01-19T14:05:38.045Z,5.47
2023-01-19T14:08:11.415Z,4.05
2023-01-19T14:10:40.909Z,2.08
2023-01-19T14:13:16.979Z,6.78
2023-01-19T14:15:45.200Z,6.68
2023-01-19T14:18:17.989Z,4.40
2023-01-19T14:21:11.831Z,4.35
2023-01-19T14:23:43.416Z,5.57
2023-01-19T14:26:46.913Z,6.28
2023-01-19T14:29:18.017Z,8.00
2023-01-19T14:31:47.057Z,7.45
2023-01-19T14:34:35.178Z,4.82
2023-01-19T14:37:04.172Z,5.68
2023-01-19T14:39:34.651Z,7.45
2023-01-19T14:42:04.054Z,5.78
2023-01-19T14:44:40.488Z,7.05
2023-01-19T14:47:38.919Z,5.32
2023-01-19T14:50:17.808Z,5.82
2023-01-19T14:53:00.132Z,5.82
2023-01-19T14:55:43.571Z,7.90
2023-01-19T14:58:12.348Z,8.13
2023-01-19T15:00:40.001Z,8.10
2023-01-19T15:03:06.942Z,4.53
2023-01-19T15:05:33.789Z,5.85
2023-01-19T15:08:02.945Z,5.40
2023-01-19T15:10:45.310Z,6.45
2023-01-19T15:13:20.531Z,6.55
2023-01-19T15:15:47.198Z,7.22
2023-01-19T15:18:21.016Z,7.93
2023-01-19T15:20:47.598Z,6.78
2023-01-19T15:23:14.140Z,7.53
2023-01-19T15:25:40.836Z,7.15
2023-01-19T15:28:16.804Z,7.07
2023-01-19T15:30:43.842Z,6.78
2023-01-19T15:33:21.475Z,11.43
2023-01-19T15:35:48.377Z,10.60
2023-01-19T15:38:15.229Z,9.52
2023-01-19T15:40:41.799Z,6.82
2023-01-19T15:43:11.443Z,10.20
2023-01-19T15:45:41.744Z,9.13
2023-01-19T15:48:11.194Z,10.82
2023-01-19T15:50:40.477Z,10.10
2023-01-19T15:53:11.963Z,7.80
2023-01-19T15:55:38.522Z,7.93
2023-01-19T15:58:05.330Z,8.60
2023-01-19T16:00:33.652Z,6.50
2023-01-19T16:03:02.045Z,8.63
2023-01-19T16:05:41.981Z,9.00
2023-01-19T16:08:10.379Z,9.38
2023-01-19T16:10:38.979Z,7.95
2023-01-19T16:13:09.368Z,11.30
2023-01-19T16:15:37.338Z,7.28
2023-01-19T16:18:05.362Z,8.32
2023-01-19T16:20:32.230Z,9.55
2023-01-19T16:23:13.835Z,8.60
2023-01-19T16:25:41.488Z,11.25
2023-01-19T16:28:08.451Z,10.45
2023-01-19T16:30:35.367Z,6.88
2023-01-19T16:33:02.088Z,10.75
2023-01-19T16:35:28.668Z,10.43
2023-01-19T16:37:55.267Z,3.15
2023-01-19T16:40:21.961Z,8.57
2023-01-19T16:42:48.647Z,8.63
2023-01-19T16:45:15.261Z,12.63
2023-01-19T16:47:41.962Z,9.55
2023-01-19T16:50:11.705Z,7.80
2023-01-19T16:52:38.678Z,10.57
2023-01-19T16:55:09.344Z,8.13
2023-01-19T16:57:38.809Z,8.35
2023-01-19T17:00:09.348Z,9.60
2023-01-19T17:02:36.349Z,10.88
2023-01-19T17:05:02.957Z,10.10
2023-01-19T17:07:29.517Z,10.40
2023-01-19T17:09:56.214Z,12.85
2023-01-19T17:12:23.130Z,8.77
2023-01-19T17:14:49.723Z,8.25
2023-01-19T17:17:16.323Z,11.88
2023-01-19T17:19:45.040Z,11.70
2023-01-19T17:22:12.905Z,9.02
2023-01-19T17:24:42.346Z,12.48
2023-01-19T17:27:10.194Z,9.25
2023-01-19T17:29:36.951Z,11.25
2023-01-19T17:32:04.006Z,13.00
2023-01-19T17:34:30.566Z,9.77
2023-01-19T17:37:02.962Z,6.93
2023-01-19T17:39:29.990Z,10.75
2023-01-19T17:41:56.622Z,12.57
2023-01-19T17:44:23.466Z,12.30
2023-01-19T17:46:50.066Z,11.13
2023-01-19T17:49:16.632Z,11.25
2023-01-19T17:51:43.229Z,10.35
2023-01-19T17:54:10.890Z,12.57
2023-01-19T17:56:38.611Z,15.05
2023-01-19T17:59:07.662Z,10.80
2023-01-19T18:01:38.149Z,11.52
2023-01-19T18:04:05.316Z,10.32
2023-01-19T18:06:31.908Z,12.88
2023-01-19T18:08:59.343Z,12.13
2023-01-19T18:11:27.070Z,12.82
2023-01-19T18:13:53.760Z,14.55
2023-01-19T18:16:25.886Z,13.07
2023-01-19T18:18:53.924Z,12.15
2023-01-19T18:21:21.882Z,12.25
2023-01-19T18:23:50.183Z,11.32
2023-01-19T18:26:19.268Z,9.95
2023-01-19T18:28:46.618Z,8.98
2023-01-19T18:31:15.644Z,12.05
2023-01-19T18:33:42.551Z,8.88
2023-01-19T18:36:10.124Z,9.82
2023-01-19T18:38:37.963Z,8.55
2023-01-19T18:41:11.250Z,8.20
2023-01-19T18:43:38.434Z,11.77
2023-01-19T18:46:05.708Z,6.75
2023-01-19T18:48:32.548Z,9.02
2023-01-19T18:51:03.323Z,9.57
2023-01-19T18:53:31.502Z,7.97
2023-01-19T18:56:01.847Z,7.93
2023-01-19T18:58:29.946Z,8.05
2023-01-19T19:00:57.156Z,9.65
2023-01-19T19:03:24.162Z,10.55
2023-01-19T19:05:50.801Z,11.50
2023-01-19T19:08:17.481Z,13.40
2023-01-19T19:10:44.475Z,11.38
2023-01-19T19:13:15.869Z,12.48
2023-01-19T19:15:44.341Z,10.38
2023-01-19T19:18:14.079Z,12.32
2023-01-19T19:20:44.348Z,11.60
2023-01-19T19:23:11.760Z,11.15
2023-01-19T19:25:38.554Z,10.90
2023-01-19T19:28:05.252Z,9.82
2023-01-19T19:30:34.313Z,11.57
2023-01-19T19:33:01.110Z,15.00
2023-01-19T19:35:27.804Z,13.43
2023-01-19T19:37:57.543Z,11.88
2023-01-19T19:40:28.489Z,12.75
2023-01-19T19:42:57.662Z,11.60
2023-01-19T19:45:25.253Z,11.27
2023-01-19T19:47:51.771Z,12.30
2023-01-19T19:50:18.478Z,12.52
2023-01-19T19:52:45.047Z,9.68
2023-01-19T19:55:12.710Z,12.45
2023-01-19T19:57:39.386Z,10.13
2023-01-19T20:00:06.697Z,10.23
2023-01-19T20:02:33.387Z,8.40
2023-01-19T20:04:59.985Z,11.15
2023-01-19T20:07:26.690Z,11.25
2023-01-19T20:09:55.056Z,13.02
2023-01-19T20:12:21.908Z,10.07
2023-01-19T20:14:48.467Z,11.85
2023-01-19T20:17:15.110Z,9.70
2023-01-19T20:19:41.724Z,11.32
2023-01-19T20:22:08.260Z,13.32
2023-01-19T20:24:37.156Z,17.10
2023-01-19T20:27:03.857Z,13.10
2023-01-19T20:29:30.680Z,12.07
2023-01-19T20:31:57.645Z,11.60
2023-01-19T20:34:28.161Z,13.93
2023-01-19T20:36:55.102Z,12.48
2023-01-19T20:39:23.290Z,12.95
2023-01-19T20:41:51.432Z,15.40
2023-01-19T20:44:24.225Z,12.23
2023-01-19T20:46:51.542Z,15.43
2023-01-19T20:49:18.447Z,13.93
2023-01-19T20:51:46.924Z,14.82
2023-01-19T20:54:16.265Z,13.60
2023-01-19T20:56:43.240Z,14.40
2023-01-19T20:59:11.544Z,14.60
2023-01-19T21:01:39.391Z,13.15
2023-01-19T21:04:06.182Z,12.52
2023-01-19T21:06:32.880Z,12.13
2023-01-19T21:08:59.560Z,10.20
2023-01-19T21:11:26.461Z,8.13
2023-01-19T21:13:56.038Z,8.65
2023-01-19T21:16:24.948Z,8.15
2023-01-19T21:18:51.624Z,9.23
2023-01-19T21:21:29.883Z,7.75
2023-01-19T21:23:58.931Z,7.82
2023-01-19T21:26:25.731Z,6.85
2023-01-19T21:28:52.425Z,8.52
2023-01-19T21:31:20.897Z,9.45
2023-01-19T21:33:49.149Z,8.15
2023-01-19T21:36:15.750Z,7.88
2023-01-19T21:38:42.392Z,6.50
2023-01-19T21:41:12.580Z,6.93
2023-01-19T21:43:41.846Z,7.00
2023-01-19T21:46:16.849Z,8.20
2023-01-19T21:48:43.532Z,5.45
2023-01-19T21:51:10.331Z,6.03
2023-01-19T21:53:37.384Z,7.82
2023-01-19T21:56:07.594Z,5.95
2023-01-19T21:58:34.256Z,6.97
2023-01-19T22:01:02.546Z,8.07
2023-01-19T22:03:29.745Z,6.88
2023-01-19T22:05:56.684Z,7.57
2023-01-19T22:08:24.086Z,8.38
2023-01-19T22:10:50.663Z,7.78
2023-01-19T22:13:17.244Z,8.18
2023-01-19T22:15:43.878Z,9.52
2023-01-19T22:18:10.444Z,8.18
2023-01-19T22:20:37.329Z,8.75
2023-01-19T22:23:03.947Z,10.13
2023-01-19T22:25:32.709Z,7.40
2023-01-19T22:27:59.400Z,8.13
2023-01-19T22:30:26.141Z,8.27
2023-01-19T22:32:53.303Z,8.73
2023-01-19T22:35:21.213Z,8.38
2023-01-19T22:37:47.782Z,7.80
2023-01-19T22:40:14.342Z,8.88
2023-01-19T22:42:44.371Z,9.82
2023-01-19T22:45:11.487Z,9.18
2023-01-19T22:47:38.247Z,11.20
2023-01-19T22:50:05.203Z,12.65
2023-01-19T22:52:31.724Z,16.88
2023-01-19T22:54:58.366Z,15.40
2023-01-19T22:57:24.976Z,15.93
2023-01-19T22:59:51.549Z,17.30
2023-01-19T23:02:20.629Z,16.08
2023-01-19T23:04:47.386Z,14.43
2023-01-19T23:07:13.933Z,16.42
2023-01-19T23:09:40.487Z,10.75
2023-01-19T23:12:07.052Z,10.10
2023-01-19T23:14:33.687Z,13.20
2023-01-19T23:17:00.266Z,11.38
2023-01-19T23:19:26.866Z,11.45
2023-01-19T23:21:53.510Z,11.57
2023-01-19T23:24:20.211Z,12.27
2023-01-19T23:26:49.255Z,8.77
2023-01-19T23:29:15.924Z,11.65
2023-01-19T23:31:45.695Z,10.55
2023-01-19T23:36:41.003Z,11.00
2023-01-19T23:39:18.290Z,6.38
2023-01-19T23:41:45.015Z,11.95
2023-01-19T23:44:11.657Z,7.72
2023-01-19T23:46:38.658Z,12.63
2023-01-19T23:49:05.431Z,10.68
2023-01-19T23:51:33.493Z,11.25
2023-01-19T23:54:01.039Z,10.93
2023-01-19T23:56:33.447Z,8.77
2023-01-19T23:59:06.386Z,10.45
